Latest Coastal Weather Observations for Mandurah

IDW60701

Issued at 2:42 pm WST Wednesday 28 January 2015 (issued every 10 minutes, with the page automatically refreshed every 10 minutes)

About coastal observations | Map of coastal stations | Coastal observations for WA | Marine services | Other Formats
Station Details ID: 009977 Name: MANDURAH Lat: -32.52 Lon: 115.71 Height: 3.0 m
Data from the previous 72 hours. | See also: Recent months at Mandurah
Date/Time
WST
Temp

°C
Wind Pressure Rain
since 9am
mm
Weather Cloud Vis
km
Sea
Height
m
Swell
Dir
 
Speed
knots
Gust
knots
hPa Trend Height
m
Period
s
Dir
28/02:30pm 31.5 W 12 16 1005.8 - 0.0 - - - - - - -
28/02:00pm 31.5 W 11 16 1006.0 - 0.0 - - - - - - -
28/01:30pm 31.5 W 11 14 1006.5 - 0.0 - - - - - - -
28/01:00pm 30.9 WNW 10 13 1006.9 - 0.0 - - - - - - -
28/12:30pm 31.1 WNW 9 11 1007.2 - 0.0 - - - - - - -
28/12:00pm 32.5 WNW 7 8 1007.5 - 0.0 - - - - - - -
28/11:30am 31.8 NW 5 6 1007.8 - 0.0 - - - - - - -
28/11:00am 30.5 NNW 5 5 1008.0 - 0.0 - - - - - - -
28/10:30am 30.2 N 5 6 1008.2 - 0.0 - - - - - - -
28/10:00am 29.5 NNW 8 9 1008.2 - 0.0 - - - - - - -
28/09:30am 28.6 NNW 9 10 1008.2 - 0.0 - - - - - - -
28/09:00am 28.6 N 8 9 1008.0 - 0.0 - - - - - - -
28/08:30am 27.5 NNW 9 11 1007.9 - 0.0 - - - - - - -
28/08:00am 30.1 NE 10 12 1007.6 - 0.0 - - - - - - -
28/07:30am 29.7 NE 9 12 1007.3 - 0.0 - - - - - - -
28/07:00am 28.6 NE 9 12 1007.0 - 0.0 - - - - - - -
28/06:30am 28.3 ENE 7 10 1006.7 - 0.0 - - - - - - -
28/06:00am 27.9 ENE 8 12 1006.4 - 0.0 - - - - - - -
28/05:30am 27.9 ENE 9 15 1005.9 - 0.0 - - - - - - -
28/05:00am 27.9 ENE 6 12 1005.5 - 0.0 - - - - - - -
28/04:30am 28.3 ENE 8 15 1005.1 - 0.0 - - - - - - -
28/04:00am 28.1 ENE 7 11 1004.8 - 0.0 - - - - - - -
28/03:30am 27.9 E 8 13 1004.7 - 0.0 - - - - - - -
28/03:00am 28.5 E 12 18 1004.6 - 0.0 - - - - - - -
28/02:30am 28.4 E 9 15 1004.6 - 0.0 - - - - - - -
28/02:00am 28.7 E 8 16 1004.7 - 0.0 - - - - - - -
28/01:30am 28.5 E 8 13 1004.8 - 0.0 - - - - - - -
28/01:00am 28.9 E 9 16 1005.2 - 0.0 - - - - - - -
28/12:30am 28.3 ESE 7 11 1005.4 - 0.0 - - - - - - -
28/12:00am 27.9 ESE 9 12 1005.6 - 0.0 - - - - - - -
 
Date/Time
WST
Temp

°C
Wind Pressure Rain
since 9am
mm
Weather Cloud Vis
km
Sea
Height
m
Swell
Dir
 
Speed
knots
Gust
knots
hPa Trend Height
m
Period
s
Dir
27/11:30pm 28.1 SSE 8 11 1005.4 - 0.0 - - - - - - -
27/11:00pm 27.9 SSE 8 11 1005.4 - 0.0 - - - - - - -
27/10:30pm 27.2 SSE 7 11 1005.7 - 0.0 - - - - - - -
27/10:00pm 27.6 SSE 7 10 1006.0 - 0.0 - - - - - - -
27/09:30pm 28.0 SSE 7 10 1006.1 - 0.0 - - - - - - -
27/09:00pm 28.4 SSE 8 10 1006.2 - 0.0 - - - - - - -
27/08:30pm 28.9 S 7 9 1006.3 - 0.0 - - - - - - -
27/08:00pm 29.1 SSE 7 10 1006.1 - 0.0 - - - - - - -
27/07:30pm 29.3 S 8 12 1006.1 - 0.0 - - - - - - -
27/07:00pm 29.7 S 8 14 1006.2 - 0.0 - - - - - - -
27/06:30pm 30.6 S 10 15 1006.0 - 0.0 - - - - - - -
27/06:00pm 32.7 SSW 9 15 1005.6 - 0.0 - - - - - - -
27/05:30pm 33.5 SW 9 13 1005.4 - 0.0 - - - - - - -
27/05:00pm 34.2 SW 9 16 1005.4 - 0.0 - - - - - - -
27/04:30pm 33.7 SW 11 16 1005.6 - 0.0 - - - - - - -
27/04:00pm 34.8 WSW 9 12 1005.9 - 0.0 - - - - - - -
27/03:30pm 34.5 SW 10 14 1006.0 - 0.0 - - - - - - -
27/03:00pm 34.3 SW 10 16 1006.2 - 0.0 - - - - - - -
27/02:30pm 33.5 SW 12 15 1006.2 - 0.0 - - - - - - -
27/02:00pm 32.8 WSW 12 17 1006.5 - 0.0 - - - - - - -
27/01:30pm 34.0 WSW 10 14 1006.7 - 0.0 - - - - - - -
27/01:00pm 35.8 WSW 9 12 1007.0 - 0.0 - - - - - - -
27/12:30pm 36.1 WSW 6 8 1007.3 - 0.0 - - - - - - -
27/12:00pm 34.4 WNW 6 7 1007.5 - 0.0 - - - - - - -
27/11:30am 33.5 NW 4 5 1007.7 - 0.0 - - - - - - -
27/11:00am 33.9 NNE 3 5 1007.9 - 0.0 - - - - - - -
27/10:30am 33.3 NE 5 8 1008.2 - 0.0 - - - - - - -
27/10:00am 32.5 NE 6 10 1008.3 - 0.0 - - - - - - -
27/09:30am 31.1 NE 8 11 1008.5 - 0.0 - - - - - - -
27/09:00am 30.6 ENE 9 14 1008.5 - 0.0 - - - - - - -
27/08:30am 29.3 ENE 8 11 1008.7 - 0.0 - - - - - - -
27/08:00am 27.3 ENE 8 13 1008.8 - 0.0 - - - - - - -
27/07:30am 25.9 ENE 7 12 1008.9 - 0.0 - - - - - - -
27/07:00am 23.9 E 3 6 1008.9 - 0.0 - - - - - - -
27/06:30am 22.8 E 1 2 1008.8 - 0.0 - - - - - - -
27/06:00am 22.4 E 6 10 1008.4 - 0.0 - - - - - - -
27/05:30am 22.6 E 8 14 1008.1 - 0.0 - - - - - - -
27/05:00am 22.7 E 9 15 1008.0 - 0.0 - - - - - - -
27/04:30am 23.0 E 10 15 1007.7 - 0.0 - - - - - - -
27/04:00am 23.3 E 9 16 1007.6 - 0.0 - - - - - - -
27/03:30am 23.7 E 10 17 1007.4 - 0.0 - - - - - - -
27/03:00am 24.0 E 10 16 1007.4 - 0.0 - - - - - - -
27/02:30am 24.4 E 11 17 1007.4 - 0.0 - - - - - - -
27/02:00am 24.8 E 12 17 1007.4 - 0.0 - - - - - - -
27/01:30am 25.4 E 12 17 1007.5 - 0.0 - - - - - - -
27/01:00am 25.9 E 11 17 1007.7 - 0.0 - - - - - - -
27/12:30am 26.4 E 11 21 1008.0 - 0.0 - - - - - - -
27/12:00am 27.2 E 11 18 1008.0 - 0.0 - - - - - - -
 
Date/Time
WST
Temp

°C
Wind Pressure Rain
since 9am
mm
Weather Cloud Vis
km
Sea
Height
m
Swell
Dir
 
Speed
knots
Gust
knots
hPa Trend Height
m
Period
s
Dir
26/11:30pm 27.5 ESE 9 14 1007.9 - 0.0 - - - - - - -
26/11:00pm 27.3 ESE 7 11 1007.8 - 0.0 - - - - - - -
26/10:30pm 26.9 ESE 7 9 1007.9 - 0.0 - - - - - - -
26/10:00pm 26.5 SSE 5 7 1008.2 - 0.0 - - - - - - -
26/09:30pm 27.1 SSE 5 6 1008.3 - 0.0 - - - - - - -
26/09:00pm 27.0 SSE 4 6 1008.3 - 0.0 - - - - - - -
26/08:30pm 27.0 S 5 7 1008.3 - 0.0 - - - - - - -
26/08:00pm 27.5 S 6 7 1008.1 - 0.0 - - - - - - -
26/07:30pm 28.4 S 6 8 1008.0 - 0.0 - - - - - - -
26/07:00pm 29.1 S 5 8 1007.9 - 0.0 - - - - - - -
26/06:30pm 29.8 S 7 10 1007.8 - 0.0 - - - - - - -
26/06:00pm 30.8 SSW 5 9 1007.6 - 0.0 - - - - - - -
26/05:30pm 32.4 S 6 9 1007.6 - 0.0 - - - - - - -
26/05:00pm 33.7 S 6 8 1007.7 - 0.0 - - - - - - -
26/04:30pm 34.8 SW 5 10 1007.9 - 0.0 - - - - - - -
26/04:00pm 35.2 S 5 11 1008.2 - 0.0 - - - - - - -
26/03:30pm 35.7 SE 3 8 1008.4 - 0.0 - - - - - - -
26/03:00pm 33.7 N 3 6 1008.7 - 0.0 - - - - - - -
26/02:30pm 34.6 W 5 10 1009.1 - 0.0 - - - - - - -
26/02:00pm 34.5 SE 4 6 1009.5 - 0.0 - - - - - - -
26/01:30pm 33.3 SSE 6 9 1009.9 - 0.0 - - - - - - -
26/01:00pm 33.0 SSE 5 9 1010.4 - 0.0 - - - - - - -
26/12:30pm 32.0 SE 7 11 1010.9 - 0.0 - - - - - - -
26/12:00pm 32.7 ESE 6 10 1011.3 - 0.0 - - - - - - -
26/11:30am 30.5 ESE 7 12 1011.8 - 0.0 - - - - - - -
26/11:00am 30.3 ESE 8 12 1012.4 - 0.0 - - - - - - -
26/10:30am 28.6 ESE 9 13 1012.7 - 0.0 - - - - - - -
26/10:00am 26.7 E 9 15 1013.3 - 0.0 - - - - - - -
26/09:30am 24.8 ESE 10 15 1013.8 - 0.0 - - - - - - -
26/09:00am 23.5 E 8 16 1013.9 - 0.0 - - - - - - -
26/08:30am 22.1 E 9 13 1014.1 - 0.0 - - - - - - -
26/08:00am 20.4 ESE 9 16 1014.6 - 0.0 - - - - - - -
26/07:30am 19.0 E 6 11 1014.9 - 0.0 - - - - - - -
26/07:00am 18.1 ESE 7 11 1015.0 - 0.0 - - - - - - -
26/06:30am 17.2 SE 7 11 1015.0 - 0.0 - - - - - - -
26/06:00am 16.8 SE 6 9 1015.0 - 0.0 - - - - - - -
26/05:30am 16.7 ESE 9 11 1014.9 - 0.0 - - - - - - -
26/05:00am 16.9 SE 6 11 1014.7 - 0.0 - - - - - - -
26/04:30am 17.0 ESE 7 13 1014.6 - 0.0 - - - - - - -
26/04:00am 17.1 SE 6 10 1014.5 - 0.0 - - - - - - -
26/03:30am 17.6 ESE 10 16 1014.5 - 0.0 - - - - - - -
26/03:00am 18.0 ESE 11 15 1014.3 - 0.0 - - - - - - -
26/02:30am 18.4 ESE 11 19 1014.4 - 0.0 - - - - - - -
26/02:00am 19.0 ESE 12 19 1014.5 - 0.0 - - - - - - -
26/01:30am 19.6 ESE 12 18 1014.6 - 0.0 - - - - - - -
26/01:00am 20.3 ESE 12 19 1014.5 - 0.0 - - - - - - -
26/12:30am 21.3 ESE 14 19 1014.4 - 0.0 - - - - - - -
26/12:00am 22.0 ESE 13 21 1014.3 - 0.0 - - - - - - -
 
Date/Time
WST
Temp

°C
Wind Pressure Rain
since 9am
mm
Weather Cloud Vis
km
Sea
Height
m
Swell
Dir
 
Speed
knots
Gust
knots
hPa Trend Height
m
Period
s
Dir
25/11:30pm 23.2 ESE 13 23 1014.2 - 0.0 - - - - - - -
25/11:00pm 24.3 SE 9 15 1014.1 - 0.0 - - - - - - -
25/10:30pm 24.8 SE 8 12 1013.8 - 0.0 - - - - - - -
25/10:00pm 25.4 SE 7 11 1014.0 - 0.0 - - - - - - -
25/09:30pm 26.1 SE 8 11 1013.8 - 0.0 - - - - - - -
25/09:00pm 26.7 SSE 7 10 1013.6 - 0.0 - - - - - - -
25/08:30pm 25.5 SSE 5 8 1013.3 - 0.0 - - - - - - -
25/08:00pm 25.1 S 5 7 1013.1 - 0.0 - - - - - - -
25/07:30pm 25.6 S 5 8 1012.8 - 0.0 - - - - - - -
25/07:00pm 25.7 SSW 7 10 1012.7 - 0.0 - - - - - - -
25/06:30pm 26.3 SSW 7 12 1012.5 - 0.0 - - - - - - -
25/06:00pm 27.3 SSW 8 12 1012.3 - 0.0 - - - - - - -
25/05:30pm 27.9 SSW 9 14 1012.3 - 0.0 - - - - - - -
25/05:00pm 29.1 S 9 13 1012.4 - 0.0 - - - - - - -
25/04:30pm 32.2 SE 9 13 1012.7 - 0.0 - - - - - - -
25/04:00pm 32.3 SE 7 12 1013.0 - 0.0 - - - - - - -
25/03:30pm 32.0 SE 9 15 1013.4 - 0.0 - - - - - - -
25/03:00pm 31.6 SE 8 14 1013.8 - 0.0 - - - - - - -

Other Formats:

Comma delimited format used in spreadsheet applications
http://www.bom.gov.au/fwo/IDW60701/IDW60701.94605.axf

JavaScript Object Notation format (JSON) in row-major order
http://www.bom.gov.au/fwo/IDW60701/IDW60701.94605.json